createdAt,value
2023-05-02T00:01:59.868Z,15.00
2023-05-02T00:04:26.916Z,15.00
2023-05-02T00:06:54.347Z,15.00
2023-05-02T00:09:22.130Z,14.90
2023-05-02T00:11:49.123Z,14.80
2023-05-02T00:14:16.204Z,14.80
2023-05-02T00:16:43.225Z,14.70
2023-05-02T00:19:10.219Z,14.70
2023-05-02T00:21:37.222Z,14.70
2023-05-02T00:24:04.470Z,14.60
2023-05-02T00:26:31.936Z,14.50
2023-05-02T00:28:59.210Z,14.50
2023-05-02T00:31:26.360Z,14.50
2023-05-02T00:33:53.337Z,14.50
2023-05-02T00:36:20.593Z,14.40
2023-05-02T00:38:47.687Z,14.40
2023-05-02T00:41:16.858Z,14.30
2023-05-02T00:43:43.892Z,14.30
2023-05-02T00:46:13.228Z,14.30
2023-05-02T00:48:40.385Z,14.20
2023-05-02T00:51:08.730Z,14.20
2023-05-02T00:53:36.410Z,14.20
2023-05-02T00:56:03.593Z,14.20
2023-05-02T00:58:31.088Z,14.20
2023-05-02T01:01:16.187Z,14.10
2023-05-02T01:04:10.751Z,14.10
2023-05-02T01:06:58.861Z,14.10
2023-05-02T01:09:42.284Z,14.10
2023-05-02T01:12:31.566Z,14.00
2023-05-02T01:15:02.450Z,14.00
2023-05-02T01:17:35.262Z,13.90
2023-05-02T01:20:17.670Z,13.90
2023-05-02T01:22:45.238Z,13.90
2023-05-02T01:25:24.257Z,13.90
2023-05-02T01:27:53.958Z,13.80
2023-05-02T01:30:22.735Z,13.80
2023-05-02T01:32:52.581Z,13.80
2023-05-02T01:35:21.516Z,13.70
2023-05-02T01:37:50.487Z,13.70
2023-05-02T01:40:20.745Z,13.70
2023-05-02T01:42:50.337Z,13.70
2023-05-02T01:45:19.591Z,13.70
2023-05-02T01:47:48.867Z,13.60
2023-05-02T01:50:20.588Z,13.60
2023-05-02T01:52:49.899Z,13.60
2023-05-02T01:55:17.873Z,13.60
2023-05-02T01:57:46.933Z,13.60
2023-05-02T02:00:17.009Z,13.60
2023-05-02T02:02:46.869Z,13.60
2023-05-02T02:05:16.223Z,13.60
2023-05-02T02:07:44.270Z,13.60
2023-05-02T02:10:11.701Z,13.60
2023-05-02T02:12:40.607Z,13.60
2023-05-02T02:15:17.044Z,13.50
2023-05-02T02:17:49.520Z,13.50
2023-05-02T02:20:17.966Z,13.50
2023-05-02T02:22:47.125Z,13.40
2023-05-02T02:25:17.699Z,13.40
2023-05-02T02:27:44.799Z,13.40
2023-05-02T02:30:12.197Z,13.30
2023-05-02T02:32:39.452Z,13.30
2023-05-02T02:35:07.675Z,13.20
2023-05-02T02:37:50.526Z,13.20
2023-05-02T02:40:27.162Z,13.20
2023-05-02T02:43:21.535Z,13.10
2023-05-02T02:46:13.348Z,13.10
2023-05-02T02:49:12.887Z,13.00
2023-05-02T02:52:11.183Z,13.00
2023-05-02T02:54:50.309Z,13.00
2023-05-02T02:57:37.955Z,12.90
2023-05-02T03:00:14.772Z,12.90
2023-05-02T03:02:43.390Z,12.90
2023-05-02T03:05:11.880Z,12.80
2023-05-02T03:07:38.885Z,12.80
2023-05-02T03:10:07.169Z,12.80
2023-05-02T03:12:34.199Z,12.80
2023-05-02T03:15:24.444Z,12.80
2023-05-02T03:17:51.494Z,12.80
2023-05-02T03:20:18.738Z,12.70
2023-05-02T03:22:45.985Z,12.70
2023-05-02T03:25:13.083Z,12.80
2023-05-02T03:27:40.078Z,12.70
2023-05-02T03:30:07.972Z,12.80
2023-05-02T03:32:34.952Z,12.70
2023-05-02T03:35:01.958Z,12.70
2023-05-02T03:37:28.980Z,12.70
2023-05-02T03:39:56.107Z,12.70
2023-05-02T03:42:23.143Z,12.70
2023-05-02T03:44:54.033Z,12.70
2023-05-02T03:47:21.090Z,12.70
2023-05-02T03:49:48.138Z,12.70
2023-05-02T03:52:15.184Z,12.70
2023-05-02T03:54:44.084Z,12.80
2023-05-02T03:57:12.542Z,12.80
2023-05-02T03:59:41.865Z,12.80
2023-05-02T04:02:09.545Z,12.80
2023-05-02T04:04:37.100Z,12.80
2023-05-02T04:07:05.227Z,12.70
2023-05-02T04:09:32.310Z,12.70
2023-05-02T04:11:59.327Z,12.70
2023-05-02T04:14:26.336Z,12.70
2023-05-02T04:16:53.515Z,12.70
2023-05-02T04:19:20.579Z,12.60
2023-05-02T04:21:47.747Z,12.60
2023-05-02T04:24:15.018Z,12.60
2023-05-02T04:26:42.005Z,12.70
2023-05-02T04:29:09.008Z,12.70
2023-05-02T04:31:36.609Z,12.70
2023-05-02T04:34:04.614Z,12.70
2023-05-02T04:36:31.615Z,12.80
2023-05-02T04:38:58.884Z,12.80
2023-05-02T04:41:26.102Z,12.90
2023-05-02T04:43:53.124Z,13.00
2023-05-02T04:46:20.170Z,13.10
2023-05-02T04:48:47.221Z,13.20
2023-05-02T04:51:16.818Z,13.20
2023-05-02T04:53:44.300Z,13.30
2023-05-02T04:56:11.780Z,13.30
2023-05-02T04:58:38.761Z,13.30
2023-05-02T05:01:06.496Z,13.30
2023-05-02T05:03:33.761Z,13.40
2023-05-02T05:06:00.894Z,13.40
2023-05-02T05:08:27.855Z,13.40
2023-05-02T05:10:54.903Z,13.40
2023-05-02T05:13:21.986Z,13.40
2023-05-02T05:15:49.079Z,13.40
2023-05-02T05:18:16.113Z,13.50
2023-05-02T05:20:43.270Z,13.50
2023-05-02T05:23:10.378Z,13.60
2023-05-02T05:25:37.461Z,13.60
2023-05-02T05:28:04.496Z,13.60
2023-05-02T05:30:31.523Z,13.60
2023-05-02T05:32:58.836Z,13.60
2023-05-02T05:35:26.454Z,13.60
2023-05-02T05:37:54.189Z,13.60
2023-05-02T05:40:21.839Z,13.70
2023-05-02T05:42:48.777Z,13.70
2023-05-02T05:45:17.411Z,13.70
2023-05-02T05:47:44.453Z,13.70
2023-05-02T05:50:11.640Z,13.80
2023-05-02T05:52:38.710Z,13.70
2023-05-02T05:55:07.136Z,13.70
2023-05-02T05:57:34.220Z,13.70
2023-05-02T06:00:01.340Z,13.80
2023-05-02T06:02:28.699Z,13.80
2023-05-02T06:04:55.858Z,13.80
2023-05-02T06:07:23.346Z,13.80
2023-05-02T06:09:50.407Z,13.90
2023-05-02T06:12:17.363Z,13.90
2023-05-02T06:14:44.395Z,13.90
2023-05-02T06:17:11.448Z,13.90
2023-05-02T06:19:38.416Z,13.90
2023-05-02T06:22:06.035Z,14.00
2023-05-02T06:24:33.017Z,14.10
2023-05-02T06:27:00.424Z,14.10
2023-05-02T06:29:27.373Z,14.20
2023-05-02T06:31:57.408Z,14.20
2023-05-02T06:34:24.669Z,14.30
2023-05-02T06:36:56.786Z,14.30
2023-05-02T06:39:23.866Z,14.40
2023-05-02T06:41:50.915Z,14.40
2023-05-02T06:44:17.913Z,14.40
2023-05-02T06:46:44.988Z,14.40
2023-05-02T06:49:12.002Z,14.40
2023-05-02T06:51:39.112Z,14.40
2023-05-02T06:54:06.617Z,14.50
2023-05-02T06:56:33.807Z,14.50
2023-05-02T06:59:00.900Z,14.50
2023-05-02T07:01:28.063Z,14.50
2023-05-02T07:03:55.043Z,14.60
2023-05-02T07:06:22.153Z,14.60
2023-05-02T07:08:49.156Z,14.60
2023-05-02T07:11:16.312Z,14.70
2023-05-02T07:13:43.570Z,14.70
2023-05-02T07:16:10.751Z,14.80
2023-05-02T07:18:37.830Z,14.90
2023-05-02T07:21:05.289Z,15.00
2023-05-02T07:23:32.416Z,15.10
2023-05-02T07:25:59.430Z,15.20
2023-05-02T07:28:26.565Z,15.30
2023-05-02T07:30:53.595Z,15.50
2023-05-02T07:33:20.867Z,15.60
2023-05-02T07:35:47.991Z,15.70
2023-05-02T07:38:15.624Z,15.80
2023-05-02T07:40:43.643Z,16.00
2023-05-02T07:43:11.173Z,16.20
2023-05-02T07:45:38.618Z,16.30
2023-05-02T07:48:05.799Z,16.40
2023-05-02T07:50:32.893Z,16.40
2023-05-02T07:53:00.678Z,16.50
2023-05-02T07:55:27.896Z,16.60
2023-05-02T07:57:54.984Z,16.70
2023-05-02T08:00:22.150Z,16.70
2023-05-02T08:02:49.332Z,16.70
2023-05-02T08:05:16.575Z,16.80
2023-05-02T08:07:43.642Z,16.80
2023-05-02T08:10:11.030Z,17.00
2023-05-02T08:12:42.355Z,17.00
2023-05-02T08:15:12.320Z,17.00
2023-05-02T08:17:39.927Z,17.00
2023-05-02T08:20:07.623Z,17.10
2023-05-02T08:22:34.625Z,17.20
2023-05-02T08:25:01.756Z,17.40
2023-05-02T08:27:28.763Z,17.50
2023-05-02T08:29:57.391Z,17.50
2023-05-02T08:32:25.992Z,17.60
2023-05-02T08:34:57.224Z,17.70
2023-05-02T08:37:24.293Z,17.70
2023-05-02T08:39:51.328Z,17.70
2023-05-02T08:42:18.332Z,17.80
2023-05-02T08:44:45.349Z,17.80
2023-05-02T08:47:15.260Z,17.90
2023-05-02T08:49:43.659Z,17.90
2023-05-02T08:52:12.794Z,17.90
2023-05-02T08:54:40.809Z,18.00
2023-05-02T08:57:08.584Z,18.10
2023-05-02T08:59:35.941Z,18.20
2023-05-02T09:02:18.114Z,18.20
2023-05-02T09:04:51.194Z,18.20
2023-05-02T09:07:18.225Z,18.20
2023-05-02T09:09:45.892Z,18.20
2023-05-02T09:12:12.934Z,18.10
2023-05-02T09:14:40.052Z,18.20
2023-05-02T09:17:07.115Z,18.30
2023-05-02T09:19:34.328Z,18.40
2023-05-02T09:22:01.932Z,18.50
2023-05-02T09:24:29.787Z,18.40
2023-05-02T09:27:03.312Z,18.40
2023-05-02T09:29:36.385Z,18.50
2023-05-02T09:32:06.431Z,18.50
2023-05-02T09:34:37.564Z,18.40
2023-05-02T09:37:05.826Z,18.40
2023-05-02T09:39:32.887Z,18.50
2023-05-02T09:42:00.233Z,18.50
2023-05-02T09:44:37.863Z,18.60
2023-05-02T09:47:06.958Z,18.60
2023-05-02T09:49:41.256Z,18.50
2023-05-02T09:52:18.514Z,18.40
2023-05-02T09:54:47.121Z,18.40
2023-05-02T09:57:14.297Z,18.40
2023-05-02T09:59:41.946Z,18.40
2023-05-02T10:02:12.140Z,18.40
2023-05-02T10:04:40.600Z,18.40
2023-05-02T10:07:10.935Z,18.40
2023-05-02T10:09:43.311Z,18.40
2023-05-02T10:12:13.712Z,18.30
2023-05-02T10:14:41.804Z,18.30
2023-05-02T10:17:14.345Z,18.30
2023-05-02T10:20:07.140Z,18.30
2023-05-02T10:22:35.431Z,18.30
2023-05-02T10:25:04.100Z,18.30
2023-05-02T10:27:32.528Z,18.30
2023-05-02T10:30:01.379Z,18.40
2023-05-02T10:32:32.266Z,18.40
2023-05-02T10:35:06.288Z,18.40
2023-05-02T10:37:37.188Z,18.40
2023-05-02T10:40:06.284Z,18.40
2023-05-02T10:42:39.776Z,18.30
2023-05-02T10:45:30.927Z,18.20
2023-05-02T10:48:30.718Z,18.10
2023-05-02T10:51:01.679Z,17.90
2023-05-02T10:53:40.440Z,17.80
2023-05-02T10:56:16.249Z,17.70
2023-05-02T10:58:49.228Z,17.60
2023-05-02T11:01:26.684Z,17.60
2023-05-02T11:03:55.119Z,17.50
2023-05-02T11:06:22.260Z,17.40
2023-05-02T11:08:49.408Z,17.40
2023-05-02T11:11:44.361Z,17.40
2023-05-02T11:14:26.742Z,17.40
2023-05-02T11:17:05.518Z,17.50
2023-05-02T11:19:38.534Z,17.50
2023-05-02T11:22:28.224Z,17.50
2023-05-02T11:24:55.285Z,17.60
2023-05-02T11:27:34.084Z,17.40
2023-05-02T11:30:05.129Z,17.40
2023-05-02T11:32:47.741Z,17.40
2023-05-02T11:35:18.493Z,17.40
2023-05-02T11:37:54.551Z,17.30
2023-05-02T11:40:22.481Z,17.30
2023-05-02T11:42:49.640Z,17.30
2023-05-02T11:45:17.022Z,17.30
2023-05-02T11:47:46.556Z,17.30
2023-05-02T11:50:13.887Z,17.30
2023-05-02T11:52:43.007Z,17.30
2023-05-02T11:55:15.149Z,17.20
2023-05-02T11:57:43.077Z,17.20
2023-05-02T12:00:13.706Z,17.30
2023-05-02T12:02:45.906Z,17.30
2023-05-02T12:05:14.103Z,17.30
2023-05-02T12:07:46.381Z,17.40
2023-05-02T12:10:14.691Z,17.40
2023-05-02T12:12:44.958Z,17.40
2023-05-02T12:15:13.679Z,17.30
2023-05-02T12:17:43.573Z,17.30
2023-05-02T12:20:11.857Z,17.30
2023-05-02T12:22:39.440Z,17.20
2023-05-02T12:25:07.346Z,17.10
2023-05-02T12:27:35.379Z,17.10
2023-05-02T12:30:02.912Z,17.00
2023-05-02T12:32:35.378Z,17.00
2023-05-02T12:35:04.203Z,17.00
2023-05-02T12:37:31.282Z,17.00
2023-05-02T12:39:58.500Z,17.00
2023-05-02T12:42:26.951Z,17.00
2023-05-02T12:44:54.146Z,17.00
2023-05-02T12:47:25.417Z,17.10
2023-05-02T12:49:52.798Z,17.10
2023-05-02T12:52:21.556Z,17.10
2023-05-02T12:54:52.309Z,17.10
2023-05-02T12:57:27.351Z,17.10
2023-05-02T12:59:55.408Z,17.10
2023-05-02T13:02:26.238Z,17.00
2023-05-02T13:05:00.970Z,17.00
2023-05-02T13:07:29.973Z,17.00
2023-05-02T13:09:57.104Z,16.90
2023-05-02T13:12:27.510Z,16.90
2023-05-02T13:14:56.649Z,16.90
2023-05-02T13:17:27.175Z,16.90
2023-05-02T13:20:01.624Z,16.90
2023-05-02T13:22:29.903Z,17.00
2023-05-02T13:24:56.953Z,17.00
2023-05-02T13:27:24.127Z,17.00
2023-05-02T13:29:51.777Z,17.00
2023-05-02T13:32:19.179Z,17.10
2023-05-02T13:34:46.272Z,17.10
2023-05-02T13:37:13.269Z,17.10
2023-05-02T13:39:40.482Z,17.10
2023-05-02T13:42:08.318Z,17.10
2023-05-02T13:44:36.587Z,17.10
2023-05-02T13:47:04.188Z,17.20
2023-05-02T13:49:31.257Z,17.20
2023-05-02T13:51:58.248Z,17.30
2023-05-02T13:54:25.492Z,17.30
2023-05-02T13:56:52.664Z,17.40
2023-05-02T13:59:19.670Z,17.40
2023-05-02T14:01:46.679Z,17.40
2023-05-02T14:04:13.802Z,17.40
2023-05-02T14:06:41.225Z,17.40
2023-05-02T14:09:08.883Z,17.40
2023-05-02T14:11:36.400Z,17.50
2023-05-02T14:14:03.451Z,17.50
2023-05-02T14:16:30.644Z,17.40
2023-05-02T14:18:57.881Z,17.40
2023-05-02T14:21:24.955Z,17.40
2023-05-02T14:23:51.943Z,17.40
2023-05-02T14:26:20.550Z,17.40
2023-05-02T14:28:47.544Z,17.50
2023-05-02T14:31:14.772Z,17.50
2023-05-02T14:33:41.964Z,17.60
2023-05-02T14:36:09.045Z,17.60
2023-05-02T14:38:36.184Z,17.60
2023-05-02T14:41:03.428Z,17.60
2023-05-02T14:43:31.378Z,17.60
2023-05-02T14:45:59.153Z,17.70
2023-05-02T14:48:26.562Z,17.70
2023-05-02T14:50:54.010Z,17.70
2023-05-02T14:53:21.599Z,17.60
2023-05-02T14:55:48.849Z,17.50
2023-05-02T14:58:20.783Z,17.50
2023-05-02T15:00:48.298Z,17.40
2023-05-02T15:03:15.574Z,17.40
2023-05-02T15:05:42.691Z,17.40
2023-05-02T15:08:09.712Z,17.30
2023-05-02T15:10:40.220Z,17.20
2023-05-02T15:13:08.821Z,17.20
2023-05-02T15:15:36.055Z,17.10
2023-05-02T15:18:03.235Z,17.10
2023-05-02T15:20:30.401Z,17.00
2023-05-02T15:22:59.048Z,17.00
2023-05-02T15:25:26.130Z,16.90
2023-05-02T15:27:53.144Z,16.80
2023-05-02T15:30:23.296Z,16.80
2023-05-02T15:32:50.859Z,16.80
2023-05-02T15:35:17.985Z,16.80
2023-05-02T15:37:45.022Z,16.70
2023-05-02T15:40:12.401Z,16.70
2023-05-02T15:42:40.248Z,16.70
2023-05-02T15:45:07.723Z,16.70
2023-05-02T15:47:34.789Z,16.60
2023-05-02T15:50:02.521Z,16.50
2023-05-02T15:52:29.766Z,16.50
2023-05-02T15:54:56.932Z,16.40
2023-05-02T15:57:23.942Z,16.40
2023-05-02T15:59:50.952Z,16.30
2023-05-02T16:02:18.003Z,16.20
2023-05-02T16:04:45.145Z,16.20
2023-05-02T16:07:12.169Z,16.20
2023-05-02T16:09:40.089Z,16.20
2023-05-02T16:12:07.446Z,16.20
2023-05-02T16:14:35.110Z,16.20
2023-05-02T16:17:02.334Z,16.10
2023-05-02T16:19:29.411Z,16.00
2023-05-02T16:21:56.511Z,16.00
2023-05-02T16:24:23.555Z,15.90
2023-05-02T16:26:50.625Z,15.80
2023-05-02T16:29:17.668Z,15.80
2023-05-02T16:31:44.945Z,15.70
2023-05-02T16:34:12.354Z,15.80
2023-05-02T16:36:39.338Z,15.70
2023-05-02T16:39:06.403Z,15.70
2023-05-02T16:41:36.282Z,15.60
2023-05-02T16:44:03.422Z,15.60
2023-05-02T16:46:31.791Z,15.50
2023-05-02T16:48:59.062Z,15.50
2023-05-02T16:51:26.114Z,15.60
2023-05-02T16:53:53.130Z,15.50
2023-05-02T16:56:20.112Z,15.50
2023-05-02T16:58:47.119Z,15.50
2023-05-02T17:01:14.136Z,15.40
2023-05-02T17:03:42.029Z,15.40
2023-05-02T17:06:09.317Z,15.30
2023-05-02T17:08:36.872Z,15.20
2023-05-02T17:11:03.862Z,15.10
2023-05-02T17:13:31.861Z,15.10
2023-05-02T17:15:59.671Z,15.00
2023-05-02T17:18:27.582Z,14.90
2023-05-02T17:20:54.972Z,14.90
2023-05-02T17:23:22.428Z,14.90
2023-05-02T17:25:49.500Z,14.90
2023-05-02T17:28:16.887Z,14.90
2023-05-02T17:30:44.343Z,14.80
2023-05-02T17:33:11.986Z,14.80
2023-05-02T17:35:39.091Z,14.70
2023-05-02T17:38:06.070Z,14.70
2023-05-02T17:40:33.037Z,14.70
2023-05-02T17:43:01.830Z,14.70
2023-05-02T17:45:29.583Z,14.60
2023-05-02T17:47:57.085Z,14.70
2023-05-02T17:50:24.675Z,14.60
2023-05-02T17:52:52.435Z,14.60
2023-05-02T17:55:19.929Z,14.60
2023-05-02T17:57:48.031Z,14.60
2023-05-02T18:00:15.669Z,14.60
2023-05-02T18:02:42.892Z,14.60
2023-05-02T18:05:10.521Z,14.50
2023-05-02T18:07:37.518Z,14.50
2023-05-02T18:10:05.731Z,14.50
2023-05-02T18:12:33.928Z,14.50
2023-05-02T18:15:02.213Z,14.50
2023-05-02T18:17:29.538Z,14.50
2023-05-02T18:19:56.907Z,14.50
2023-05-02T18:22:24.085Z,14.50
2023-05-02T18:24:51.737Z,14.50
2023-05-02T18:27:19.017Z,14.40
2023-05-02T18:29:46.473Z,14.50
2023-05-02T18:32:15.085Z,14.40
2023-05-02T18:34:42.155Z,14.50
2023-05-02T18:37:10.181Z,14.40
2023-05-02T18:39:37.681Z,14.40
2023-05-02T18:42:08.376Z,14.40
2023-05-02T18:44:35.970Z,14.40
2023-05-02T18:47:03.263Z,14.30
2023-05-02T18:49:31.016Z,14.30
2023-05-02T18:51:58.645Z,14.30
2023-05-02T18:54:28.639Z,14.30
2023-05-02T18:56:56.524Z,14.30
2023-05-02T18:59:24.970Z,14.30
2023-05-02T19:01:54.542Z,14.30
2023-05-02T19:04:22.167Z,14.30
2023-05-02T19:06:49.371Z,14.30
2023-05-02T19:09:18.403Z,14.30
2023-05-02T19:11:46.076Z,14.20
2023-05-02T19:14:14.064Z,14.20
2023-05-02T19:16:42.065Z,14.20
2023-05-02T19:19:11.505Z,14.20
2023-05-02T19:21:39.066Z,14.20
2023-05-02T19:24:07.182Z,14.20
2023-05-02T19:26:34.849Z,14.20
2023-05-02T19:29:02.578Z,14.20
2023-05-02T19:31:30.703Z,14.10
2023-05-02T19:33:58.538Z,14.20
2023-05-02T19:36:28.398Z,14.10
2023-05-02T19:38:58.679Z,14.10
2023-05-02T19:41:26.517Z,14.10
2023-05-02T19:43:56.465Z,14.10
2023-05-02T19:46:23.841Z,14.10
2023-05-02T19:48:51.546Z,14.10
2023-05-02T19:51:25.555Z,14.10
2023-05-02T19:53:59.058Z,14.10
2023-05-02T19:56:29.769Z,14.10
2023-05-02T19:58:59.101Z,14.00
2023-05-02T20:01:29.802Z,14.10
2023-05-02T20:03:58.590Z,14.10
2023-05-02T20:06:26.889Z,14.00
2023-05-02T20:08:55.241Z,14.00
2023-05-02T20:11:22.352Z,14.00
2023-05-02T20:13:50.322Z,14.00
2023-05-02T20:16:17.734Z,14.00
2023-05-02T20:18:45.202Z,14.00
2023-05-02T20:21:12.321Z,14.00
2023-05-02T20:23:43.552Z,14.00
2023-05-02T20:26:11.111Z,14.00
2023-05-02T20:28:38.202Z,14.00
2023-05-02T20:31:05.689Z,13.90
2023-05-02T20:33:43.715Z,14.00
2023-05-02T20:36:13.530Z,13.90
2023-05-02T20:38:42.645Z,13.90
2023-05-02T20:41:14.311Z,13.90
2023-05-02T20:43:45.261Z,14.00
2023-05-02T20:50:48.222Z,14.00
2023-05-02T20:53:15.732Z,14.00
2023-05-02T20:55:42.913Z,13.90
2023-05-02T20:58:10.033Z,13.90
2023-05-02T21:00:37.151Z,13.90
2023-05-02T21:03:04.310Z,13.90
2023-05-02T21:05:31.308Z,13.90
2023-05-02T21:07:58.356Z,13.90
2023-05-02T21:10:27.770Z,13.90
2023-05-02T21:12:54.793Z,13.80
2023-05-02T21:15:21.784Z,13.80
2023-05-02T21:17:48.871Z,13.70
2023-05-02T21:20:16.285Z,13.70
2023-05-02T21:22:43.280Z,13.60
2023-05-02T21:25:10.818Z,13.60
2023-05-02T21:27:37.920Z,13.60
2023-05-02T21:30:05.652Z,13.70
2023-05-02T21:32:33.129Z,13.70
2023-05-02T21:35:01.040Z,13.70
2023-05-02T21:37:28.369Z,13.70
2023-05-02T21:39:55.321Z,13.70
2023-05-02T21:42:22.399Z,13.70
2023-05-02T21:44:50.744Z,13.70
2023-05-02T21:47:17.828Z,13.60
2023-05-02T21:49:44.883Z,13.60
2023-05-02T21:52:12.200Z,13.60
2023-05-02T21:54:39.971Z,13.50
2023-05-02T21:57:07.094Z,13.50
2023-05-02T21:59:34.136Z,13.50
2023-05-02T22:02:01.240Z,13.40
2023-05-02T22:04:28.281Z,13.40
2023-05-02T22:06:55.639Z,13.40
2023-05-02T22:09:22.696Z,13.40
2023-05-02T22:11:49.769Z,13.40
2023-05-02T22:14:16.918Z,13.40
2023-05-02T22:16:43.865Z,13.40
2023-05-02T22:19:11.998Z,13.30
2023-05-02T22:21:38.952Z,13.30
2023-05-02T22:24:06.233Z,13.30
2023-05-02T22:26:33.191Z,13.30
2023-05-02T22:29:00.151Z,13.30
2023-05-02T22:31:27.275Z,13.30
2023-05-02T22:33:54.246Z,13.30
2023-05-02T22:36:21.218Z,13.30
2023-05-02T22:38:48.184Z,13.30
2023-05-02T22:41:15.228Z,13.20
2023-05-02T22:43:42.196Z,13.20
2023-05-02T22:46:09.211Z,13.20
2023-05-02T22:48:36.296Z,13.20
2023-05-02T22:51:03.324Z,13.20
2023-05-02T22:53:30.369Z,13.10
2023-05-02T22:55:57.316Z,13.10
2023-05-02T22:58:24.439Z,13.10
2023-05-02T23:00:51.509Z,13.10
2023-05-02T23:03:18.641Z,13.00
2023-05-02T23:05:45.882Z,13.00
2023-05-02T23:08:12.858Z,13.00
2023-05-02T23:10:39.837Z,13.00
2023-05-02T23:13:06.843Z,12.90
2023-05-02T23:15:33.844Z,12.90
2023-05-02T23:18:00.980Z,12.90
2023-05-02T23:20:28.250Z,12.90
2023-05-02T23:22:55.239Z,12.90
2023-05-02T23:25:26.495Z,12.80
2023-05-02T23:27:53.649Z,12.80
2023-05-02T23:30:21.157Z,12.80
2023-05-02T23:32:48.387Z,12.80
2023-05-02T23:35:15.763Z,12.80
2023-05-02T23:37:42.893Z,12.80
2023-05-02T23:40:10.530Z,12.70
2023-05-02T23:42:40.508Z,12.70
2023-05-02T23:45:09.186Z,12.70
2023-05-02T23:47:36.638Z,12.70
2023-05-02T23:50:05.702Z,12.70
2023-05-02T23:52:33.537Z,12.70
2023-05-02T23:55:00.597Z,12.60
2023-05-02T23:57:30.399Z,12.70
2023-05-02T23:59:57.358Z,12.60
